Time;durP1;ratioP1;P1;durP2;ratioP2;P2;SDS_P1;SDS_P2;PMS_P1;PMS_P2;Temp;Humidity;BMP_temperature;BMP_pressure;BME280_temperature;BME280_humidity;BME280_pressure;Samples;Min_cycle;Max_cycle;Signal;HPM_P1;HPM_P2
2022/07/27 00:01:49;;;;;;;20.33;16.77;;;;;;;23.63;66.15;98501.38;4977516;28;20169;-87
2022/07/27 00:04:14;;;;;;;24.07;16.70;;;;;;;24.60;64.63;98656.00;4976769;28;20176;-87
2022/07/27 00:06:40;;;;;;;19.37;15.93;;;;;;;24.58;64.15;98656.91;4962194;28;20954;-87
2022/07/27 00:09:05;;;;;;;19.53;15.27;;;;;;;23.40;63.25;98439.91;4962681;28;20220;-86
2022/07/27 00:11:30;;;;;;;19.40;16.60;;;;;;;24.21;64.14;98573.28;4976456;28;20200;-86
2022/07/27 00:13:56;;;;;;;20.90;17.70;;;;;;;24.66;65.69;98657.56;4959519;28;20240;-85
2022/07/27 00:16:21;;;;;;;20.77;18.37;;;;;;;24.61;66.69;98660.25;4977033;28;20181;-85
2022/07/27 00:18:47;;;;;;;21.17;18.80;;;;;;;23.11;66.95;98432.78;4961473;28;20636;-85
2022/07/27 00:21:13;;;;;;;25.03;19.17;;;;;;;23.96;67.89;98589.34;4960406;28;20275;-85
2022/07/27 00:23:39;;;;;;;25.33;19.70;;;;;;;23.04;68.67;98464.78;4959713;28;20199;-84
2022/07/27 00:26:04;;;;;;;27.13;19.13;;;;;;;23.81;69.02;98605.22;4961453;28;20168;-86
2022/07/27 00:28:30;;;;;;;23.27;19.97;;;;;;;23.93;71.31;98673.88;4961989;28;20168;-85
2022/07/27 00:30:55;;;;;;;27.23;20.37;;;;;;;23.08;73.39;98538.69;4962180;28;20227;-86
2022/07/27 00:33:21;;;;;;;27.83;20.63;;;;;;;23.25;74.44;98566.78;4962039;28;20251;-86
2022/07/27 00:35:46;;;;;;;26.43;19.50;;;;;;;23.43;77.34;98664.63;4976269;28;20176;-85
2022/07/27 00:38:11;;;;;;;22.33;19.93;;;;;;;23.15;78.56;98622.94;4960565;28;20172;-86
2022/07/27 00:40:37;;;;;;;25.33;19.83;;;;;;;22.39;78.60;98478.94;4953225;28;20268;-85
2022/07/27 00:43:02;;;;;;;24.40;19.30;;;;;;;22.45;80.91;98525.25;4943441;29;20180;-87
2022/07/27 00:45:28;;;;;;;24.47;19.67;;;;;;;23.21;81.71;98666.69;4957079;29;20209;-86
2022/07/27 00:47:53;;;;;;;22.00;19.57;;;;;;;22.78;81.81;98589.19;4951548;29;20221;-86
2022/07/27 00:50:19;;;;;;;24.50;19.57;;;;;;;22.69;81.18;98553.22;4957965;28;20176;-86
2022/07/27 00:52:45;;;;;;;23.57;18.93;;;;;;;23.31;80.11;98644.16;4962672;28;20204;-86
2022/07/27 00:55:10;;;;;;;20.87;18.43;;;;;;;22.63;79.18;98521.50;4978835;28;20168;-86
2022/07/27 00:57:36;;;;;;;23.93;20.07;;;;;;;22.81;81.78;98622.69;4987942;28;20183;-86
2022/07/27 01:00:03;;;;;;;22.47;19.50;;;;;;;22.73;86.71;98660.69;4996377;28;20164;-85
2022/07/27 01:02:29;;;;;;;25.50;20.13;;;;;;;22.68;87.30;98654.75;4986962;28;20180;-86
2022/07/27 01:04:54;;;;;;;24.63;19.97;;;;;;;21.42;86.88;98433.31;4977810;28;20178;-87
2022/07/27 01:07:21;;;;;;;25.67;20.33;;;;;;;22.89;84.28;98654.38;4976676;28;20299;-86
2022/07/27 01:09:55;;;;;;;23.00;19.60;;;;;;;23.02;82.44;98652.44;4977408;28;20179;-85
2022/07/27 01:12:21;;;;;;;25.77;20.30;;;;;;;23.15;81.46;98661.66;4977017;28;20199;-84
2022/07/27 01:14:48;;;;;;;24.27;20.87;;;;;;;23.25;80.27;98659.75;4977169;28;20536;-84
2022/07/27 01:17:14;;;;;;;24.47;20.67;;;;;;;22.85;79.18;98580.44;4976710;28;20188;-85
2022/07/27 01:19:40;;;;;;;25.73;20.50;;;;;;;23.34;79.84;98669.91;4977201;28;20230;-85
2022/07/27 01:22:05;;;;;;;24.30;21.17;;;;;;;22.31;79.63;98489.41;4977546;28;20164;-85
2022/07/27 01:24:32;;;;;;;24.50;20.53;;;;;;;22.38;80.81;98523.69;4975498;28;20180;-85
2022/07/27 01:27:00;;;;;;;23.93;20.80;;;;;;;22.92;83.65;98656.91;4977126;28;20172;-84
2022/07/27 01:29:26;;;;;;;26.00;21.00;;;;;;;22.96;83.41;98647.41;4975440;28;20180;-85
2022/07/27 01:31:51;;;;;;;23.33;20.63;;;;;;;23.09;84.43;98681.56;4975656;28;20211;-85
2022/07/27 01:34:17;;;;;;;23.90;20.60;;;;;;;22.87;85.58;98653.56;4976357;28;20176;-85
2022/07/27 01:36:44;;;;;;;28.27;21.47;;;;;;;23.10;85.52;98673.78;4977080;28;20169;-86
2022/07/27 01:39:10;;;;;;;27.27;21.97;;;;;;;21.33;85.89;98376.78;4976307;28;20549;-86
2022/07/27 01:41:35;;;;;;;24.90;21.70;;;;;;;22.44;86.91;98570.00;4977394;28;20254;-85
2022/07/27 01:44:01;;;;;;;25.17;20.63;;;;;;;22.19;86.17;98509.41;4976574;28;20562;-85
2022/07/27 01:46:26;;;;;;;26.57;21.93;;;;;;;22.59;87.02;98590.38;4959406;28;20168;-85
2022/07/27 01:48:53;;;;;;;26.33;21.13;;;;;;;23.06;88.24;98663.56;4976327;28;20251;-85
2022/07/27 01:51:18;;;;;;;24.23;20.77;;;;;;;22.98;89.38;98660.25;4959141;28;20239;-85
2022/07/27 01:53:43;;;;;;;23.90;20.90;;;;;;;22.62;89.53;98598.06;4976025;28;20541;-85
2022/07/27 01:56:10;;;;;;;25.53;20.87;;;;;;;20.46;87.93;98218.53;4976794;28;20172;-86
2022/07/27 01:58:37;;;;;;;25.67;20.87;;;;;;;22.80;88.28;98615.81;4975905;28;20172;-85
2022/07/27 02:01:04;;;;;;;28.83;22.77;;;;;;;23.26;86.35;98666.63;4975257;28;20216;-85
2022/07/27 02:03:29;;;;;;;25.77;21.00;;;;;;;22.94;86.39;98619.91;4975330;28;20176;-86
2022/07/27 02:05:55;;;;;;;25.50;21.07;;;;;;;23.24;87.13;98670.97;4976928;28;20187;-85
2022/07/27 02:08:20;;;;;;;23.33;19.50;;;;;;;23.26;84.07;98671.81;4976124;28;20188;-85
2022/07/27 02:13:30;;;;;;;23.33;19.43;;;;;;;22.85;84.74;98616.59;4976381;28;20262;-84
2022/07/27 02:15:55;;;;;;;27.17;18.87;;;;;;;21.89;83.82;98451.47;4976329;28;20212;-85
2022/07/27 02:18:21;;;;;;;24.33;19.97;;;;;;;23.28;81.39;98675.19;4975875;28;20180;-86
2022/07/27 02:20:47;;;;;;;27.53;20.60;;;;;;;23.36;80.94;98670.72;4974874;28;20172;-85
2022/07/27 02:23:12;;;;;;;26.03;19.57;;;;;;;23.39;80.93;98679.31;4975909;28;20179;-86
2022/07/27 02:25:39;;;;;;;24.20;18.80;;;;;;;22.89;81.88;98595.00;4974470;28;20707;-86
2022/07/27 02:28:05;;;;;;;23.10;18.40;;;;;;;23.16;81.89;98639.25;4975893;28;20326;-86
2022/07/27 02:30:31;;;;;;;20.27;17.87;;;;;;;23.27;81.33;98678.66;4975385;28;20179;-86
2022/07/27 02:32:56;;;;;;;22.20;18.00;;;;;;;23.27;80.83;98674.34;4975128;28;20203;-86
2022/07/27 02:35:22;;;;;;;21.97;17.53;;;;;;;22.60;79.28;98568.00;4975448;28;20175;-85
2022/07/27 02:37:47;;;;;;;22.73;19.20;;;;;;;23.33;77.92;98674.22;4975232;28;20186;-85
2022/07/27 02:40:15;;;;;;;22.23;17.50;;;;;;;22.63;78.55;98575.69;4975709;28;20172;-86
2022/07/27 02:42:41;;;;;;;22.20;17.63;;;;;;;22.83;81.14;98618.34;4975155;28;20247;-86
2022/07/27 02:45:07;;;;;;;23.47;18.07;;;;;;;23.09;81.19;98671.25;4975560;28;20577;-86
2022/07/27 02:47:33;;;;;;;23.03;17.93;;;;;;;23.06;79.77;98653.22;4975240;28;20302;-86
2022/07/27 02:50:00;;;;;;;26.07;19.87;;;;;;;22.95;86.38;98655.16;4975737;28;20176;-85
2022/07/27 02:52:25;;;;;;;25.90;20.90;;;;;;;22.35;100.00;98642.38;4974798;28;20211;-85
2022/07/27 02:54:51;;;;;;;27.33;21.23;;;;;;;21.12;100.00;98493.81;4974401;28;20172;-85
2022/07/27 02:57:16;;;;;;;25.77;21.53;;;;;;;21.81;100.00;98628.50;4975199;28;20176;-85
2022/07/27 02:59:42;;;;;;;27.37;21.73;;;;;;;21.89;100.00;98675.69;4975426;28;20242;-85
2022/07/27 03:02:07;;;;;;;31.07;22.07;;;;;;;19.62;100.00;98312.91;4977019;28;20172;-86
2022/07/27 03:04:33;;;;;;;28.70;21.47;;;;;;;21.74;100.00;98689.59;4957633;28;20186;-86
2022/07/27 03:06:58;;;;;;;28.40;21.83;;;;;;;20.81;100.00;98577.34;4974689;28;20169;-86
2022/07/27 03:09:24;;;;;;;32.10;22.93;;;;;;;21.42;100.00;98647.91;4974970;28;20247;-86
2022/07/27 03:11:49;;;;;;;30.47;22.30;;;;;;;20.73;100.00;98592.00;4974168;28;20204;-84
2022/07/27 03:14:15;;;;;;;28.43;23.20;;;;;;;20.31;100.00;98542.69;4974408;28;20168;-86
2022/07/27 03:16:40;;;;;;;29.37;23.57;;;;;;;20.53;100.00;98575.03;4974698;28;20179;-85
2022/07/27 03:19:05;;;;;;;29.37;23.10;;;;;;;20.51;100.00;98522.78;4975564;28;20172;-85
2022/07/27 03:21:31;;;;;;;29.33;22.93;;;;;;;21.40;100.00;98690.00;4984667;28;20183;-85
2022/07/27 03:23:56;;;;;;;31.10;23.67;;;;;;;20.51;100.00;98521.94;4993259;28;20232;-85
2022/07/27 03:26:22;;;;;;;30.37;23.27;;;;;;;21.33;100.00;98636.84;4984636;28;20184;-86
2022/07/27 03:28:47;;;;;;;33.77;25.70;;;;;;;21.03;100.00;98560.81;4973719;28;20567;-85
2022/07/27 03:31:13;;;;;;;30.93;25.23;;;;;;;20.73;100.00;98543.13;4974446;28;20192;-85
2022/07/27 03:33:38;;;;;;;32.43;24.23;;;;;;;21.60;100.00;98673.44;4973659;28;21369;-85
2022/07/27 03:36:04;;;;;;;36.13;27.50;;;;;;;21.31;100.00;98630.88;4972887;28;20176;-85
2022/07/27 03:38:29;;;;;;;36.67;25.90;;;;;;;21.55;100.00;98724.16;4974527;28;20176;-86
2022/07/27 03:40:55;;;;;;;30.37;24.13;;;;;;;20.07;100.00;98457.19;4973070;28;20180;-85
2022/07/27 03:43:20;;;;;;;30.50;24.20;;;;;;;20.60;100.00;98614.44;4974339;28;20168;-86
2022/07/27 03:45:46;;;;;;;29.93;24.20;;;;;;;21.09;100.00;98728.94;4974738;28;20160;-86
2022/07/27 03:48:11;;;;;;;31.47;24.30;;;;;;;20.17;100.00;98544.47;4973716;28;20715;-86
2022/07/27 03:50:37;;;;;;;32.73;24.23;;;;;;;19.48;100.00;98444.81;4974562;28;20172;-86
2022/07/27 03:53:02;;;;;;;30.83;24.87;;;;;;;20.79;100.00;98724.03;4974268;28;20172;-86
2022/07/27 03:55:28;;;;;;;36.60;25.03;;;;;;;20.31;100.00;98642.94;4975081;28;20168;-86
2022/07/27 03:57:54;;;;;;;31.17;23.83;;;;;;;20.93;100.00;98678.41;4974453;28;20192;-86
2022/07/27 04:00:20;;;;;;;32.30;23.03;;;;;;;21.33;100.00;98712.38;4974444;28;20168;-85
2022/07/27 04:02:45;;;;;;;29.33;23.27;;;;;;;20.29;100.00;98528.13;4974755;28;20276;-85
2022/07/27 04:05:11;;;;;;;30.87;23.53;;;;;;;20.15;100.00;98497.38;4977273;28;20180;-86
2022/07/27 04:07:37;;;;;;;32.60;23.37;;;;;;;21.53;100.00;98736.22;4975882;28;20169;-86
2022/07/27 04:10:03;;;;;;;29.70;23.30;;;;;;;21.61;100.00;98742.13;4976593;28;20179;-85
2022/07/27 04:12:29;;;;;;;31.37;23.13;;;;;;;21.22;100.00;98655.00;4975450;28;20679;-85
2022/07/27 04:14:54;;;;;;;34.90;24.13;;;;;;;20.59;100.00;98600.72;4960390;28;20176;-85
2022/07/27 04:17:20;;;;;;;34.30;24.40;;;;;;;21.03;100.00;98671.47;4976516;28;20526;-86
2022/07/27 04:19:45;;;;;;;34.77;24.53;;;;;;;20.14;100.00;98461.41;4976372;28;20559;-86
2022/07/27 04:22:11;;;;;;;30.80;23.50;;;;;;;22.05;100.00;98753.69;4975428;28;20643;-87
2022/07/27 04:24:36;;;;;;;33.27;23.50;;;;;;;21.37;100.00;98701.16;4976573;28;20629;-86
2022/07/27 04:27:02;;;;;;;34.40;23.53;;;;;;;19.60;100.00;98401.09;4977958;28;20172;-86
2022/07/27 04:29:27;;;;;;;34.47;23.63;;;;;;;21.97;100.00;98764.09;4978633;28;20176;-87
2022/07/27 04:31:53;;;;;;;33.37;23.33;;;;;;;21.63;100.00;98717.22;4977343;28;20203;-85
2022/07/27 04:34:18;;;;;;;33.07;23.80;;;;;;;20.42;100.00;98502.28;4977866;28;20186;-86
2022/07/27 04:36:44;;;;;;;36.87;24.03;;;;;;;21.99;100.00;98712.50;4977319;28;20202;-87
2022/07/27 04:39:09;;;;;;;28.37;22.93;;;;;;;22.20;100.00;98722.53;4976452;28;20702;-87
2022/07/27 04:41:35;;;;;;;32.83;23.17;;;;;;;22.44;100.00;98770.34;4977093;28;20168;-87
2022/07/27 04:44:00;;;;;;;27.63;21.90;;;;;;;21.04;100.00;98624.28;4979215;28;20172;-87
2022/07/27 04:46:28;;;;;;;30.80;21.93;;;;;;;21.71;100.00;98776.38;4978309;28;20267;-86
2022/07/27 04:48:53;;;;;;;31.13;22.20;;;;;;;19.59;100.00;98402.81;4977996;28;20231;-88
2022/07/27 04:51:19;;;;;;;27.07;21.90;;;;;;;21.19;100.00;98647.31;4976994;28;20195;-88
2022/07/27 04:53:44;;;;;;;27.60;21.73;;;;;;;21.04;100.00;98594.22;4976681;28;20168;-87
2022/07/27 04:56:10;;;;;;;29.37;20.63;;;;;;;20.92;100.00;98521.47;4955113;28;20245;-87
2022/07/27 04:58:36;;;;;;;25.07;20.40;;;;;;;22.83;100.00;98765.47;4954334;28;20194;-88
2022/07/27 05:01:02;;;;;;;24.83;19.73;;;;;;;22.46;100.00;98702.38;4965796;28;20194;-87
2022/07/27 05:03:28;;;;;;;24.43;19.57;;;;;;;22.86;100.00;98790.38;4969999;28;20196;-86
2022/07/27 05:05:54;;;;;;;26.00;20.07;;;;;;;22.03;98.41;98599.00;4961153;28;20188;-88
2022/07/27 05:08:19;;;;;;;27.67;20.50;;;;;;;21.43;97.42;98460.75;4977078;28;20188;-87
2022/07/27 05:10:45;;;;;;;25.43;20.13;;;;;;;23.18;94.87;98690.03;4959501;28;20194;-85
2022/07/27 05:13:11;;;;;;;26.47;20.53;;;;;;;23.44;99.41;98786.00;4976393;28;21132;-85
2022/07/27 05:15:38;;;;;;;30.40;20.67;;;;;;;23.81;97.07;98785.34;4976900;28;20188;-85
2022/07/27 05:18:04;;;;;;;26.33;19.97;;;;;;;24.12;93.71;98795.97;4974588;28;20268;-83
2022/07/27 05:20:29;;;;;;;30.67;23.17;;;;;;;24.11;92.23;98789.06;4975599;28;20198;-87
2022/07/27 05:22:55;;;;;;;30.17;22.93;;;;;;;23.99;88.27;98736.69;4974812;28;20258;-87
2022/07/27 05:25:24;;;;;;;30.30;21.07;;;;;;;24.55;86.31;98797.63;4973849;28;20204;-87
2022/07/27 05:27:50;;;;;;;27.83;20.17;;;;;;;23.70;79.00;98635.63;4951889;28;20196;-88
2022/07/27 05:30:15;;;;;;;28.73;20.40;;;;;;;24.25;79.17;98750.84;4974818;28;20184;-87
2022/07/27 05:32:44;;;;;;;24.30;20.27;;;;;;;23.92;78.06;98638.59;4974683;28;20269;-87
2022/07/27 05:35:10;;;;;;;26.37;21.43;;;;;;;24.89;76.15;98768.38;4968973;28;20189;-86
2022/07/27 05:37:36;;;;;;;24.07;19.17;;;;;;;24.52;74.26;98699.31;4971097;28;20188;-89
2022/07/27 05:40:06;;;;;;;27.90;19.40;;;;;;;25.42;73.36;98804.19;4971880;28;20200;-87
2022/07/27 05:42:32;;;;;;;24.10;19.70;;;;;;;25.14;74.46;98811.78;4972722;28;20264;-87
2022/07/27 05:44:57;;;;;;;23.20;18.30;;;;;;;25.50;68.71;98806.59;4974957;28;20223;-87
2022/07/27 05:47:22;;;;;;;21.80;16.87;;;;;;;25.78;67.04;98799.81;4989364;28;20240;-87
2022/07/27 05:49:48;;;;;;;20.87;17.23;;;;;;;25.96;64.95;98809.66;4990416;28;20188;-87
2022/07/27 05:52:13;;;;;;;18.80;16.23;;;;;;;25.24;64.73;98660.38;4978317;28;20241;-88
2022/07/27 05:54:40;;;;;;;25.57;19.40;;;;;;;26.04;63.46;98763.59;4973192;28;20192;-88
2022/07/27 05:57:05;;;;;;;22.77;16.17;;;;;;;25.45;62.11;98630.44;4961181;28;20230;-87
2022/07/27 05:59:31;;;;;;;22.30;17.13;;;;;;;26.51;60.75;98797.75;4973724;28;20183;-84
2022/07/27 06:01:57;;;;;;;21.88;17.25;;;;;;;26.13;60.20;98706.28;4932878;29;20979;-86
2022/07/27 06:04:23;;;;;;;20.13;16.48;;;;;;;26.06;60.59;98724.66;4913669;29;20591;-86
2022/07/27 06:09:33;;;;;;;23.83;16.40;;;;;;;26.93;58.52;98767.88;4935416;29;20238;-87
2022/07/27 06:11:58;;;;;;;20.50;16.48;;;;;;;27.03;57.55;98750.25;4933598;29;20224;-86
2022/07/27 06:14:24;;;;;;;23.38;16.08;;;;;;;26.56;58.20;98679.88;4917674;29;20297;-88
2022/07/27 06:16:49;;;;;;;22.85;17.42;;;;;;;25.68;58.57;98570.19;4914862;29;20650;-88
2022/07/27 06:19:15;;;;;;;19.90;15.68;;;;;;;26.57;58.88;98772.44;4920359;29;20200;-86
2022/07/27 06:21:40;;;;;;;21.30;16.38;;;;;;;26.47;58.94;98694.88;4932005;29;20191;-88
2022/07/27 06:24:06;;;;;;;23.38;16.58;;;;;;;26.66;58.18;98665.69;4921529;29;20188;-89
2022/07/27 06:26:31;;;;;;;19.23;16.08;;;;;;;27.00;57.19;98708.75;4913496;29;20200;-88
2022/07/27 06:28:59;;;;;;;21.98;16.50;;;;;;;27.61;56.84;98785.56;4932229;29;20195;-88
2022/07/27 06:31:26;;;;;;;22.73;16.20;;;;;;;26.61;56.89;98620.00;4933836;29;20260;-88
2022/07/27 06:33:53;;;;;;;20.23;15.82;;;;;;;26.08;56.45;98453.88;4917481;29;20208;-89
2022/07/27 06:36:20;;;;;;;20.58;15.90;;;;;;;27.85;55.89;98792.50;4918944;29;20195;-88
2022/07/27 06:38:46;;;;;;;19.13;15.48;;;;;;;27.26;56.72;98687.91;4935297;28;20562;-88
2022/07/27 06:41:11;;;;;;;18.02;15.93;;;;;;;27.10;55.64;98632.19;4973979;28;20582;-88
2022/07/27 06:43:37;;;;;;;24.50;16.63;;;;;;;27.71;54.76;98652.50;4974613;28;20185;-87
2022/07/27 06:46:02;;;;;;;19.77;16.38;;;;;;;27.76;53.16;98593.34;4974407;28;20655;-88
2022/07/27 06:48:28;;;;;;;18.75;15.73;;;;;;;28.58;52.71;98733.31;4972657;28;20223;-88
2022/07/27 06:50:54;;;;;;;19.98;16.00;;;;;;;27.90;52.77;98631.84;4973737;28;20256;-87
2022/07/27 06:53:19;;;;;;;21.95;15.93;;;;;;;28.43;53.67;98779.03;4974376;28;20264;-88
2022/07/27 06:55:45;;;;;;;18.35;16.33;;;;;;;26.33;52.91;98427.97;4964640;28;20239;-88
2022/07/27 06:58:11;;;;;;;22.23;16.77;;;;;;;27.47;54.25;98677.63;4973817;28;20668;-88
2022/07/27 07:00:37;;;;;;;19.65;17.15;;;;;;;27.25;54.55;98653.28;4973834;28;20217;-88
2022/07/27 07:03:05;;;;;;;18.77;16.33;;;;;;;26.91;53.64;98535.84;4956927;28;20682;-88
2022/07/27 07:05:31;;;;;;;19.58;16.45;;;;;;;28.38;52.32;98725.41;4972378;28;20741;-88
2022/07/27 07:07:57;;;;;;;22.75;16.83;;;;;;;28.79;50.88;98682.16;4956821;28;20191;-89
2022/07/27 07:10:24;;;;;;;23.02;16.38;;;;;;;28.88;49.41;98676.53;4971102;28;20224;-89
2022/07/27 07:12:54;;;;;;;18.33;16.00;;;;;;;29.01;49.58;98680.31;4972166;28;20218;-88
2022/07/27 07:15:21;;;;;;;19.50;15.95;;;;;;;29.41;49.78;98760.34;4954965;28;20188;-87
2022/07/27 07:17:47;;;;;;;18.33;16.27;;;;;;;28.60;52.45;98763.59;4972499;28;20244;-88
2022/07/27 07:20:12;;;;;;;20.48;16.83;;;;;;;28.05;52.73;98652.94;4971141;28;20671;-88
2022/07/27 07:22:37;;;;;;;18.67;15.70;;;;;;;28.06;50.45;98562.69;4972269;28;20188;-89
2022/07/27 07:25:03;;;;;;;17.38;15.15;;;;;;;28.58;48.64;98556.19;4972931;28;20566;-88
2022/07/27 07:27:28;;;;;;;18.60;16.23;;;;;;;29.80;48.67;98751.66;4972771;28;20198;-89
2022/07/27 07:29:54;;;;;;;18.15;16.25;;;;;;;28.86;47.32;98566.31;4973451;28;20672;-89
2022/07/27 07:32:21;;;;;;;17.98;16.02;;;;;;;30.33;46.49;98757.06;4971898;28;20203;-88
2022/07/27 07:34:51;;;;;;;22.17;17.15;;;;;;;29.49;47.28;98688.69;4956675;28;20191;-89
2022/07/27 07:37:18;;;;;;;19.00;16.58;;;;;;;28.38;47.83;98506.69;4980339;28;20183;-88
2022/07/27 07:39:45;;;;;;;22.10;17.73;;;;;;;29.90;46.72;98671.19;4972387;28;20192;-89
2022/07/27 07:42:10;;;;;;;24.70;18.73;;;;;;;29.83;44.53;98620.19;4972461;28;20667;-88
2022/07/27 07:44:36;;;;;;;27.45;18.58;;;;;;;30.67;44.47;98693.63;4969382;28;20254;-89
2022/07/27 07:47:02;;;;;;;23.58;18.73;;;;;;;30.24;45.38;98707.03;4952250;28;20289;-90
2022/07/27 07:49:27;;;;;;;22.90;19.23;;;;;;;30.86;43.94;98725.78;4958149;28;20230;-89
2022/07/27 07:51:52;;;;;;;21.65;19.30;;;;;;;30.88;42.54;98635.06;4968224;28;20218;-89
2022/07/27 07:54:18;;;;;;;23.00;19.63;;;;;;;29.93;43.17;98518.78;4967583;28;20193;-89
2022/07/27 07:56:43;;;;;;;24.90;20.27;;;;;;;30.22;44.05;98570.44;4960081;28;20226;-90
2022/07/27 07:59:09;;;;;;;22.38;19.17;;;;;;;30.83;43.15;98600.47;4977677;28;20190;-89
2022/07/27 08:01:34;;;;;;;20.73;18.63;;;;;;;31.78;42.35;98732.50;4968739;28;20197;-89
2022/07/27 08:04:00;;;;;;;24.40;18.42;;;;;;;31.28;42.59;98724.59;4977383;28;20186;-89
2022/07/27 08:06:25;;;;;;;26.48;18.77;;;;;;;31.61;41.73;98743.84;4985909;28;20647;-88
2022/07/27 08:08:51;;;;;;;21.25;19.02;;;;;;;30.14;40.76;98444.63;4989787;28;20197;-89
2022/07/27 08:11:16;;;;;;;20.58;18.38;;;;;;;31.60;41.55;98739.53;4997846;28;20200;-89
2022/07/27 08:13:42;;;;;;;20.48;18.27;;;;;;;31.61;42.12;98751.69;4997396;28;20202;-90
2022/07/27 08:16:07;;;;;;;20.95;18.75;;;;;;;31.32;42.20;98724.38;4974575;28;20207;-88
2022/07/27 08:18:32;;;;;;;20.65;18.45;;;;;;;31.77;41.51;98742.13;4978417;28;20585;-89
2022/07/27 08:20:58;;;;;;;22.33;19.30;;;;;;;31.55;40.63;98602.81;4976393;28;20189;-88
2022/07/27 08:23:25;;;;;;;24.42;19.15;;;;;;;32.74;40.57;98723.69;4976631;28;20218;-88
2022/07/27 08:25:51;;;;;;;20.92;18.80;;;;;;;32.50;39.16;98612.31;4967057;28;20576;-89
2022/07/27 08:28:17;;;;;;;21.38;18.70;;;;;;;32.90;38.73;98630.09;4960900;28;20303;-88
2022/07/27 08:30:42;;;;;;;21.88;18.77;;;;;;;32.48;38.93;98580.97;4968384;28;20683;-87
2022/07/27 08:33:07;;;;;;;21.33;19.13;;;;;;;33.43;38.44;98678.56;4974681;28;20208;-88
2022/07/27 08:35:33;;;;;;;20.38;18.33;;;;;;;33.78;38.15;98735.03;4960061;28;20210;-87
2022/07/27 08:38:01;;;;;;;19.75;17.35;;;;;;;32.22;37.91;98495.19;4959959;28;20191;-88
2022/07/27 08:40:27;;;;;;;19.20;17.13;;;;;;;33.47;37.41;98695.78;4976034;28;20184;-88
2022/07/27 08:42:52;;;;;;;22.00;17.55;;;;;;;33.49;37.54;98672.91;4977371;28;20180;-87
2022/07/27 08:45:19;;;;;;;19.35;17.35;;;;;;;33.05;36.21;98568.84;4976511;28;20211;-88
2022/07/27 08:47:45;;;;;;;22.77;17.65;;;;;;;33.64;37.54;98720.13;4976032;28;20231;-87
2022/07/27 08:50:22;;;;;;;21.88;17.42;;;;;;;34.26;36.31;98718.00;4970996;28;20652;-87
2022/07/27 08:53:08;;;;;;;19.83;17.10;;;;;;;34.04;36.80;98726.38;4976474;28;20207;-88
2022/07/27 08:55:40;;;;;;;22.17;16.77;;;;;;;34.11;37.55;98719.84;4976260;28;20211;-88
2022/07/27 08:58:07;;;;;;;20.73;18.08;;;;;;;32.50;37.08;98471.63;4967412;28;20242;-88
2022/07/27 09:00:34;;;;;;;19.65;16.95;;;;;;;33.58;35.97;98633.00;4983648;28;20192;-88
2022/07/27 09:03:01;;;;;;;19.52;16.85;;;;;;;34.54;35.88;98709.22;4988740;28;20222;-85
2022/07/27 09:05:27;;;;;;;22.55;16.80;;;;;;;35.13;34.82;98706.19;4967609;28;20204;-87
2022/07/27 09:07:53;;;;;;;18.05;16.15;;;;;;;34.69;34.83;98647.75;4976002;28;20192;-86
2022/07/27 09:10:30;;;;;;;19.58;16.90;;;;;;;34.55;34.71;98695.97;4975560;28;20188;-86
2022/07/27 09:12:56;;;;;;;19.77;17.65;;;;;;;34.19;35.09;98577.44;4976155;28;20671;-88
2022/07/27 09:15:22;;;;;;;18.75;16.75;;;;;;;33.81;34.94;98469.56;4955533;28;20193;-87
2022/07/27 09:17:47;;;;;;;18.95;16.65;;;;;;;33.24;34.76;98495.09;4970731;28;20184;-87
2022/07/27 09:20:18;;;;;;;18.35;16.52;;;;;;;34.30;34.30;98599.47;4957516;28;20549;-86
2022/07/27 09:22:51;;;;;;;18.33;16.52;;;;;;;35.07;34.41;98668.91;4965117;28;20632;-85
2022/07/27 09:25:25;;;;;;;19.17;17.13;;;;;;;35.16;33.51;98658.56;4968378;28;20195;-87
2022/07/27 09:27:56;;;;;;;21.13;17.00;;;;;;;35.12;33.59;98651.84;4963737;28;21000;-87
2022/07/27 09:30:22;;;;;;;19.70;15.85;;;;;;;35.55;34.30;98701.63;4961397;28;20218;-88
2022/07/27 09:33:02;;;;;;;18.52;16.63;;;;;;;35.72;34.09;98698.63;4965355;28;20628;-88
2022/07/27 09:35:33;;;;;;;20.40;17.40;;;;;;;34.93;34.71;98698.75;4979859;28;20203;-89
2022/07/27 09:38:22;;;;;;;18.85;16.85;;;;;;;35.43;33.31;98693.56;4980226;28;20184;-88
2022/07/27 09:40:59;;;;;;;19.63;17.00;;;;;;;35.40;32.94;98667.44;4975373;28;20196;-87
2022/07/27 09:43:25;;;;;;;18.90;16.88;;;;;;;35.31;34.22;98678.59;4971045;28;20187;-89
2022/07/27 09:45:52;;;;;;;17.92;16.20;;;;;;;35.80;33.57;98691.88;4968841;28;20188;-88
2022/07/27 09:48:19;;;;;;;19.17;16.02;;;;;;;35.77;32.06;98664.88;4966048;28;20216;-88
2022/07/27 09:50:57;;;;;;;17.98;16.00;;;;;;;35.97;32.50;98693.31;4965580;28;20227;-88
2022/07/27 09:53:25;;;;;;;19.00;17.00;;;;;;;36.11;32.87;98674.75;4969267;28;20187;-88
2022/07/27 09:56:04;;;;;;;21.48;16.55;;;;;;;36.37;32.61;98694.78;4955556;28;20644;-87
2022/07/27 09:58:47;;;;;;;18.30;16.40;;;;;;;36.36;31.86;98635.13;4957165;28;20184;-87
2022/07/27 10:01:20;;;;;;;18.75;16.75;;;;;;;35.91;33.45;98685.84;4970409;28;20185;-86
2022/07/27 10:03:47;;;;;;;17.73;15.93;;;;;;;35.44;32.78;98563.56;4968654;28;20187;-86
2022/07/27 10:06:13;;;;;;;17.85;16.10;;;;;;;35.87;31.69;98582.47;4959868;28;20273;-87
2022/07/27 10:08:44;;;;;;;17.63;15.80;;;;;;;36.45;31.58;98676.63;4955666;28;20193;-88
2022/07/27 10:11:11;;;;;;;17.08;15.45;;;;;;;34.08;32.25;98367.09;4955378;28;20652;-87
2022/07/27 10:13:37;;;;;;;16.60;14.93;;;;;;;35.51;30.41;98522.69;4964008;28;20283;-87
2022/07/27 10:16:05;;;;;;;16.58;14.93;;;;;;;36.87;29.99;98679.69;4975147;28;20191;-87
2022/07/27 10:19:05;;;;;;;16.83;15.02;;;;;;;36.90;29.79;98685.59;4955408;29;20192;-86
2022/07/27 10:21:32;;;;;;;13.88;12.63;;;;;;;36.67;28.77;98679.38;4954658;28;20642;-88
2022/07/27 10:24:10;;;;;;;15.88;13.52;;;;;;;37.00;29.31;98677.88;4965748;28;20851;-87
2022/07/27 10:26:41;;;;;;;14.60;13.18;;;;;;;37.37;27.96;98679.38;4971847;28;20187;-87
2022/07/27 10:29:12;;;;;;;15.38;13.88;;;;;;;36.87;29.57;98674.41;4977255;28;20187;-88
2022/07/27 10:31:54;;;;;;;14.70;12.40;;;;;;;36.85;28.20;98676.34;4984371;28;20231;-87
2022/07/27 10:34:55;;;;;;;14.20;12.70;;;;;;;36.64;28.72;98655.91;5003533;28;20211;-86
2022/07/27 10:37:33;;;;;;;15.77;13.52;;;;;;;36.79;28.90;98661.81;4934091;29;20207;-87
2022/07/27 10:42:50;;;;;;;12.85;11.45;;;;;;;36.58;27.70;98669.53;4919361;29;20257;-86
2022/07/27 10:45:17;;;;;;;11.75;10.65;;;;;;;35.89;27.67;98627.13;4913961;29;20206;-87
2022/07/27 10:47:44;;;;;;;13.07;11.43;;;;;;;35.66;27.68;98575.25;4913708;29;20346;-86
2022/07/27 10:50:15;;;;;;;12.27;11.18;;;;;;;36.44;26.76;98661.75;4914454;29;20202;-87
2022/07/27 10:52:51;;;;;;;12.15;10.55;;;;;;;36.99;26.86;98665.63;4896308;29;20796;-87
2022/07/27 10:55:33;;;;;;;11.25;10.05;;;;;;;37.01;26.20;98656.63;4913331;29;20608;-88
2022/07/27 10:58:17;;;;;;;11.90;10.80;;;;;;;37.25;26.31;98656.53;4885740;29;20238;-87
2022/07/27 11:00:48;;;;;;;11.50;10.30;;;;;;;37.56;26.43;98650.59;4915267;29;20194;-88
2022/07/27 11:03:27;;;;;;;11.95;10.85;;;;;;;37.73;26.35;98659.84;4914185;29;20193;-88
2022/07/27 11:05:56;;;;;;;14.20;11.00;;;;;;;37.89;26.35;98655.03;4914125;29;20245;-87
2022/07/27 11:08:26;;;;;;;12.00;10.77;;;;;;;37.35;26.34;98591.50;4913804;29;20190;-88
2022/07/27 11:10:52;;;;;;;13.02;11.35;;;;;;;37.81;26.65;98662.72;4931406;28;20196;-88
2022/07/27 11:13:20;;;;;;;12.32;11.10;;;;;;;37.85;25.75;98650.94;4972569;28;20627;-88
2022/07/27 11:15:54;;;;;;;11.85;10.60;;;;;;;37.58;25.32;98646.03;4977924;28;20184;-88
2022/07/27 11:18:30;;;;;;;15.80;11.85;;;;;;;36.51;26.34;98465.19;4976158;28;20186;-87
2022/07/27 11:21:14;;;;;;;12.88;11.32;;;;;;;37.21;26.48;98644.53;4972626;28;20203;-87
2022/07/27 11:23:40;;;;;;;13.32;12.13;;;;;;;36.95;26.26;98572.59;4971568;28;20669;-87